createdAt,value
2022-09-09T00:00:10.232Z,77.44
2022-09-09T00:01:10.250Z,77.53
2022-09-09T00:02:10.324Z,77.15
2022-09-09T00:03:10.393Z,77.15
2022-09-09T00:04:10.386Z,77.15
2022-09-09T00:05:10.301Z,77.06
2022-09-09T00:06:10.312Z,77.62
2022-09-09T00:07:10.359Z,78.01
2022-09-09T00:08:10.345Z,77.72
2022-09-09T00:09:10.356Z,77.15
2022-09-09T00:10:10.372Z,76.96
2022-09-09T00:11:10.434Z,76.77
2022-09-09T00:12:10.399Z,76.57
2022-09-09T00:13:10.411Z,76.48
2022-09-09T00:14:10.424Z,75.53
2022-09-09T00:15:10.444Z,75.72
2022-09-09T00:16:10.569Z,75.53
2022-09-09T00:17:10.469Z,75.05
2022-09-09T00:18:10.480Z,75.34
2022-09-09T00:19:10.496Z,74.77
2022-09-09T00:20:10.511Z,75.05
2022-09-09T00:21:10.527Z,75.15
2022-09-09T00:22:10.538Z,75.24
2022-09-09T00:23:10.580Z,75.53
2022-09-09T00:24:10.567Z,76.01
2022-09-09T00:25:10.579Z,75.72
2022-09-09T00:26:10.594Z,75.81
2022-09-09T00:27:10.611Z,75.24
2022-09-09T00:28:10.622Z,75.43
2022-09-09T00:29:10.631Z,75.05
2022-09-09T00:30:10.647Z,74.86
2022-09-09T00:31:10.850Z,74.86
2022-09-09T00:32:10.679Z,74.96
2022-09-09T00:33:13.797Z,75.05
2022-09-09T00:34:10.706Z,76.57
2022-09-09T00:35:10.718Z,79.53
2022-09-09T00:36:10.750Z,80.01
2022-09-09T00:37:10.756Z,80.96
2022-09-09T00:38:10.767Z,81.25
2022-09-09T00:39:10.796Z,80.96
2022-09-09T00:40:10.865Z,82.11
2022-09-09T00:41:10.804Z,82.59
2022-09-09T00:42:10.830Z,83.06
2022-09-09T00:43:10.831Z,83.73
2022-09-09T00:44:10.844Z,84.97
2022-09-09T00:45:10.861Z,85.25
2022-09-09T00:46:10.952Z,85.02
2022-09-09T00:47:10.886Z,85.41
2022-09-09T00:48:10.902Z,83.31
2022-09-09T00:49:10.912Z,80.73
2022-09-09T00:50:10.927Z,79.88
2022-09-09T00:51:10.941Z,80.26
2022-09-09T00:52:10.955Z,84.92
2022-09-09T00:53:10.968Z,85.88
2022-09-09T00:54:10.980Z,85.78
2022-09-09T00:55:11.023Z,85.31
2022-09-09T00:56:11.009Z,84.45
2022-09-09T00:57:11.020Z,84.36
2022-09-09T00:58:11.036Z,85.21
2022-09-09T00:59:11.051Z,85.97
2022-09-09T01:00:11.063Z,85.88
2022-09-09T01:01:11.146Z,85.31
2022-09-09T01:02:11.155Z,85.88
2022-09-09T01:03:11.106Z,85.69
2022-09-09T01:04:11.220Z,86.55
2022-09-09T01:05:11.132Z,86.26
2022-09-09T01:06:11.148Z,86.65
2022-09-09T01:07:11.164Z,86.65
2022-09-09T01:08:11.170Z,87.40
2022-09-09T01:09:11.189Z,87.60
2022-09-09T01:10:11.197Z,87.60
2022-09-09T01:11:11.241Z,87.69
2022-09-09T01:12:11.237Z,87.50
2022-09-09T01:13:11.241Z,87.69
2022-09-09T01:14:11.282Z,87.31
2022-09-09T01:15:11.271Z,87.40
2022-09-09T01:16:11.369Z,87.12
2022-09-09T01:17:11.298Z,87.88
2022-09-09T01:18:11.329Z,87.98
2022-09-09T01:19:11.325Z,88.74
2022-09-09T01:20:11.343Z,88.93
2022-09-09T01:21:11.350Z,89.22
2022-09-09T01:22:11.361Z,89.89
2022-09-09T01:23:11.376Z,89.79
2022-09-09T01:24:11.394Z,89.69
2022-09-09T01:25:11.410Z,90.45
2022-09-09T01:26:11.420Z,90.45
2022-09-09T01:27:11.476Z,90.26
2022-09-09T01:28:11.445Z,89.65
2022-09-09T01:29:11.458Z,90.26
2022-09-09T01:30:11.573Z,89.89
2022-09-09T01:31:11.624Z,89.69
2022-09-09T01:32:11.509Z,89.40
2022-09-09T01:33:11.513Z,89.40
2022-09-09T01:34:11.529Z,89.12
2022-09-09T01:35:11.540Z,89.12
2022-09-09T01:36:11.552Z,88.93
2022-09-09T01:37:11.565Z,89.03
2022-09-09T01:38:11.580Z,88.64
2022-09-09T01:39:11.598Z,88.17
2022-09-09T01:40:11.677Z,87.69
2022-09-09T01:41:11.618Z,87.60
2022-09-09T01:42:11.635Z,87.79
2022-09-09T01:43:11.674Z,87.69
2022-09-09T01:44:11.661Z,87.60
2022-09-09T01:45:11.676Z,87.88
2022-09-09T01:46:11.717Z,88.07
2022-09-09T01:47:11.705Z,88.17
2022-09-09T01:48:11.720Z,88.26
2022-09-09T01:49:11.731Z,88.45
2022-09-09T01:50:11.741Z,88.55
2022-09-09T01:51:11.756Z,88.36
2022-09-09T01:52:11.769Z,88.74
2022-09-09T01:53:11.783Z,87.98
2022-09-09T01:54:11.798Z,87.98
2022-09-09T01:55:11.809Z,87.98
2022-09-09T01:56:11.826Z,87.31
2022-09-09T01:57:11.836Z,87.60
2022-09-09T01:58:11.851Z,88.64
2022-09-09T01:59:11.898Z,88.45
2022-09-09T02:00:11.877Z,88.45
2022-09-09T02:01:11.955Z,88.17
2022-09-09T02:02:11.988Z,88.36
2022-09-09T02:03:11.918Z,87.88
2022-09-09T02:04:11.929Z,87.98
2022-09-09T02:05:11.941Z,88.26
2022-09-09T02:06:11.963Z,87.60
2022-09-09T02:07:11.973Z,87.60
2022-09-09T02:08:12.012Z,86.83
2022-09-09T02:09:11.998Z,85.69
2022-09-09T02:10:12.007Z,84.83
2022-09-09T02:11:12.026Z,85.31
2022-09-09T02:12:12.038Z,85.31
2022-09-09T02:13:12.049Z,84.50
2022-09-09T02:14:12.066Z,84.64
2022-09-09T02:15:12.106Z,84.83
2022-09-09T02:16:12.137Z,84.98
2022-09-09T02:17:12.104Z,84.79
2022-09-09T02:18:12.114Z,84.50
2022-09-09T02:19:12.141Z,85.93
2022-09-09T02:20:12.149Z,87.46
2022-09-09T02:21:12.162Z,87.65
2022-09-09T02:22:12.169Z,88.22
2022-09-09T02:23:12.251Z,88.31
2022-09-09T02:24:12.199Z,88.51
2022-09-09T02:25:12.208Z,88.98
2022-09-09T02:26:54.710Z,89.84
2022-09-09T02:27:54.752Z,90.31
2022-09-09T02:28:54.726Z,90.60
2022-09-09T02:29:54.827Z,90.98
2022-09-09T02:30:54.907Z,91.08
2022-09-09T02:31:54.755Z,90.89
2022-09-09T02:32:54.766Z,90.70
2022-09-09T02:33:54.775Z,91.08
2022-09-09T02:34:54.786Z,90.98
2022-09-09T02:35:54.901Z,90.60
2022-09-09T02:36:54.825Z,91.36
2022-09-09T02:37:54.834Z,91.17
2022-09-09T02:38:54.854Z,91.94
2022-09-09T02:39:55.015Z,91.65
2022-09-09T02:40:54.868Z,92.41
2022-09-09T02:41:54.884Z,91.65
2022-09-09T02:42:54.898Z,92.41
2022-09-09T02:43:54.905Z,93.27
2022-09-09T02:44:54.923Z,92.50
2022-09-09T02:45:55.030Z,93.17
2022-09-09T02:46:54.979Z,93.08
2022-09-09T02:47:54.959Z,93.27
2022-09-09T02:48:54.975Z,92.98
2022-09-09T02:49:54.985Z,92.22
2022-09-09T02:50:55.000Z,92.32
2022-09-09T02:51:55.013Z,93.27
2022-09-09T02:52:55.127Z,93.27
2022-09-09T02:53:55.039Z,93.46
2022-09-09T02:54:55.051Z,92.98
2022-09-09T02:55:55.064Z,93.27
2022-09-09T02:56:55.077Z,92.41
2022-09-09T02:57:55.093Z,92.60
2022-09-09T02:58:55.104Z,92.41
2022-09-09T02:59:55.119Z,92.89
2022-09-09T03:00:55.179Z,92.79
2022-09-09T03:01:55.250Z,92.46
2022-09-09T03:02:55.186Z,92.50
2022-09-09T03:03:55.170Z,92.89
2022-09-09T03:04:55.183Z,92.84
2022-09-09T03:05:55.205Z,93.22
2022-09-09T03:06:55.214Z,93.08
2022-09-09T03:07:55.224Z,92.93
2022-09-09T03:08:55.245Z,92.84
2022-09-09T03:09:55.250Z,93.12
2022-09-09T03:10:55.264Z,93.37
2022-09-09T03:11:55.278Z,93.37
2022-09-09T03:12:55.292Z,93.41
2022-09-09T03:13:55.298Z,93.27
2022-09-09T03:14:55.318Z,94.03
2022-09-09T03:15:55.332Z,94.60
2022-09-09T03:16:55.425Z,94.98
2022-09-09T03:17:55.360Z,94.60
2022-09-09T03:18:55.396Z,95.36
2022-09-09T03:19:55.387Z,95.65
2022-09-09T03:20:55.398Z,94.51
2022-09-09T03:21:55.416Z,94.32
2022-09-09T03:22:55.421Z,94.79
2022-09-09T03:23:55.439Z,94.89
2022-09-09T03:24:55.453Z,94.51
2022-09-09T03:25:55.467Z,94.13
2022-09-09T03:26:55.471Z,93.93
2022-09-09T03:27:55.483Z,93.37
2022-09-09T03:28:55.496Z,93.08
2022-09-09T03:29:55.515Z,93.37
2022-09-09T03:30:55.542Z,93.08
2022-09-09T03:31:55.610Z,93.27
2022-09-09T03:32:55.651Z,93.46
2022-09-09T03:33:55.562Z,92.89
2022-09-09T03:34:55.604Z,92.41
2022-09-09T03:35:55.596Z,93.03
2022-09-09T03:36:55.602Z,92.65
2022-09-09T03:37:55.616Z,93.03
2022-09-09T03:38:55.629Z,92.46
2022-09-09T03:39:55.773Z,92.55
2022-09-09T03:40:55.656Z,93.32
2022-09-09T03:41:55.677Z,93.41
2022-09-09T03:42:55.681Z,93.51
2022-09-09T03:43:55.696Z,92.55
2022-09-09T03:44:55.714Z,93.12
2022-09-09T03:45:55.771Z,92.55
2022-09-09T03:46:55.738Z,92.93
2022-09-09T03:47:55.754Z,93.41
2022-09-09T03:48:55.760Z,93.98
2022-09-09T03:49:55.777Z,93.22
2022-09-09T03:50:55.815Z,93.51
2022-09-09T03:51:55.797Z,93.88
2022-09-09T03:52:55.816Z,93.51
2022-09-09T03:53:55.844Z,93.60
2022-09-09T03:54:55.839Z,93.79
2022-09-09T03:55:55.857Z,94.93
2022-09-09T03:56:55.865Z,94.84
2022-09-09T03:57:55.873Z,95.79
2022-09-09T03:58:55.889Z,96.41
2022-09-09T03:59:55.906Z,98.60
2022-09-09T04:00:56.072Z,99.84
2022-09-09T04:01:55.994Z,99.99
2022-09-09T04:02:55.943Z,99.99
2022-09-09T04:03:55.958Z,99.99
2022-09-09T04:04:55.972Z,99.99
2022-09-09T04:05:56.039Z,99.99
2022-09-09T04:06:56.020Z,99.99
2022-09-09T04:07:56.034Z,99.99
2022-09-09T04:08:56.032Z,99.99
2022-09-09T04:09:56.037Z,99.99
2022-09-09T04:10:56.049Z,99.99
2022-09-09T04:11:56.062Z,99.99
2022-09-09T04:12:56.075Z,99.99
2022-09-09T04:13:56.085Z,99.99
2022-09-09T04:14:56.103Z,99.99
2022-09-09T04:15:56.109Z,99.99
2022-09-09T04:16:56.223Z,99.99
2022-09-09T04:17:56.139Z,99.99
2022-09-09T04:18:56.152Z,99.99
2022-09-09T04:19:56.167Z,99.99
2022-09-09T04:20:56.179Z,99.99
2022-09-09T04:21:56.190Z,99.99
2022-09-09T04:22:56.237Z,99.99
2022-09-09T04:23:56.214Z,99.99
2022-09-09T04:24:56.229Z,99.99
2022-09-09T04:25:56.246Z,99.99
2022-09-09T04:26:56.255Z,99.99
2022-09-09T04:27:56.270Z,99.99
2022-09-09T04:28:56.302Z,99.84
2022-09-09T04:29:56.295Z,99.99
2022-09-09T04:30:56.305Z,99.99
2022-09-09T04:31:56.387Z,99.99
2022-09-09T04:32:56.384Z,99.99
2022-09-09T04:33:56.340Z,99.99
2022-09-09T04:34:56.360Z,99.99
2022-09-09T04:35:56.369Z,99.99
2022-09-09T04:36:56.384Z,99.99
2022-09-09T04:37:56.395Z,99.99
2022-09-09T04:38:56.437Z,99.99
2022-09-09T04:39:56.495Z,99.99
2022-09-09T04:40:56.430Z,99.99
2022-09-09T04:41:56.449Z,99.99
2022-09-09T04:42:56.467Z,99.99
2022-09-09T04:43:56.470Z,99.99
2022-09-09T04:44:56.484Z,99.99
2022-09-09T04:45:56.721Z,99.99
2022-09-09T04:46:56.510Z,99.99
2022-09-09T04:47:56.519Z,99.99
2022-09-09T04:48:56.530Z,99.99
2022-09-09T04:49:56.546Z,99.99
2022-09-09T04:50:56.564Z,99.99
2022-09-09T04:51:56.572Z,99.99
2022-09-09T04:52:56.581Z,99.99
2022-09-09T04:53:56.592Z,99.99
2022-09-09T04:54:56.732Z,99.99
2022-09-09T04:55:56.624Z,99.99
2022-09-09T04:56:56.633Z,99.99
2022-09-09T04:57:56.643Z,99.99
2022-09-09T04:58:56.656Z,99.99
2022-09-09T04:59:56.672Z,99.99
2022-09-09T05:00:56.761Z,99.99
2022-09-09T05:01:56.757Z,99.99
2022-09-09T05:02:56.715Z,99.99
2022-09-09T05:03:56.721Z,99.99
2022-09-09T05:04:56.736Z,99.99
2022-09-09T05:05:56.745Z,99.99
2022-09-09T05:06:56.759Z,99.99
2022-09-09T05:07:56.771Z,99.99
2022-09-09T05:08:56.786Z,99.99
2022-09-09T05:09:56.799Z,99.99
2022-09-09T05:10:56.833Z,99.99
2022-09-09T05:11:56.819Z,99.99
2022-09-09T05:12:56.833Z,99.99
2022-09-09T05:13:56.846Z,99.99
2022-09-09T05:14:56.864Z,99.99
2022-09-09T05:15:56.897Z,99.99
2022-09-09T05:16:56.885Z,99.99
2022-09-09T05:17:56.900Z,99.99
2022-09-09T05:18:56.908Z,99.99
2022-09-09T05:19:56.925Z,99.99
2022-09-09T05:20:56.939Z,99.99
2022-09-09T05:21:56.948Z,99.99
2022-09-09T05:22:56.968Z,99.99
2022-09-09T05:23:56.974Z,99.99
2022-09-09T05:24:56.989Z,99.99
2022-09-09T05:25:56.996Z,99.99
2022-09-09T05:26:57.035Z,99.99
2022-09-09T05:27:57.023Z,99.41
2022-09-09T05:28:57.037Z,99.69
2022-09-09T05:29:57.056Z,99.51
2022-09-09T05:30:57.060Z,99.51
2022-09-09T05:31:57.159Z,99.03
2022-09-09T05:32:57.093Z,99.13
2022-09-09T05:33:57.098Z,99.51
2022-09-09T05:34:57.110Z,98.74
2022-09-09T05:35:57.124Z,97.51
2022-09-09T05:36:57.299Z,98.27
2022-09-09T05:37:57.214Z,97.89
2022-09-09T05:38:57.162Z,98.46
2022-09-09T05:39:57.266Z,97.99
2022-09-09T05:40:57.184Z,97.89
2022-09-09T05:41:57.198Z,97.60
2022-09-09T05:42:57.248Z,97.03
2022-09-09T05:43:57.241Z,95.70
2022-09-09T05:44:57.239Z,94.84
2022-09-09T05:45:57.279Z,94.65
2022-09-09T05:46:57.351Z,94.84
2022-09-09T05:47:57.271Z,95.51
2022-09-09T05:48:57.429Z,95.22
2022-09-09T05:49:57.301Z,95.51
2022-09-09T05:50:57.568Z,95.89
2022-09-09T05:51:57.320Z,95.79
2022-09-09T05:52:57.336Z,95.41
2022-09-09T05:53:57.346Z,95.98
2022-09-09T05:54:57.362Z,95.79
2022-09-09T05:55:57.375Z,96.27
2022-09-09T05:56:57.381Z,96.08
2022-09-09T05:57:57.398Z,96.84
2022-09-09T05:58:57.537Z,97.13
2022-09-09T05:59:57.474Z,97.79
2022-09-09T06:00:57.435Z,97.89
2022-09-09T06:01:57.566Z,98.27
2022-09-09T06:02:57.554Z,99.13
2022-09-09T06:03:57.473Z,96.17
2022-09-09T06:05:00.471Z,96.17
2022-09-09T06:05:57.507Z,96.65
2022-09-09T06:06:57.511Z,95.89
2022-09-09T06:07:57.522Z,97.13
2022-09-09T06:08:57.637Z,96.94
2022-09-09T06:09:57.547Z,96.27
2022-09-09T06:10:57.569Z,96.08
2022-09-09T06:11:57.608Z,96.08
2022-09-09T06:12:57.840Z,95.60
2022-09-09T06:13:57.597Z,96.17
2022-09-09T06:14:57.656Z,95.79
2022-09-09T06:15:57.657Z,94.74
2022-09-09T06:16:57.637Z,94.17
2022-09-09T06:17:57.645Z,93.98
2022-09-09T06:18:57.661Z,93.89
2022-09-09T06:19:57.674Z,93.70
2022-09-09T06:20:57.688Z,93.22
2022-09-09T06:21:57.695Z,92.94
2022-09-09T06:22:57.706Z,92.36
2022-09-09T06:24:00.894Z,93.03
2022-09-09T06:24:57.733Z,92.55
2022-09-09T06:25:57.752Z,93.32
2022-09-09T06:26:57.758Z,93.70
2022-09-09T06:27:57.770Z,93.13
2022-09-09T06:28:57.788Z,92.18
2022-09-09T06:29:57.796Z,91.89
2022-09-09T06:30:57.831Z,92.27
2022-09-09T06:31:57.833Z,93.03
2022-09-09T06:32:57.831Z,93.32
2022-09-09T06:33:57.847Z,93.13
2022-09-09T06:34:57.856Z,93.41
2022-09-09T06:35:57.887Z,92.46
2022-09-09T06:36:57.883Z,92.84
2022-09-09T06:37:57.896Z,92.84
2022-09-09T06:38:57.908Z,91.99
2022-09-09T06:39:57.958Z,92.36
2022-09-09T06:40:57.930Z,92.36
2022-09-09T06:41:57.944Z,92.27
2022-09-09T06:42:57.956Z,92.98
2022-09-09T06:43:57.971Z,92.94
2022-09-09T06:44:57.980Z,93.70
2022-09-09T06:45:57.990Z,93.41
2022-09-09T06:46:58.065Z,93.60
2022-09-09T06:47:58.023Z,93.51
2022-09-09T06:48:58.132Z,93.22
2022-09-09T06:49:58.045Z,93.22
2022-09-09T06:50:58.058Z,93.22
2022-09-09T06:51:58.073Z,93.89
2022-09-09T06:52:58.088Z,93.60
2022-09-09T06:53:58.098Z,93.98
2022-09-09T06:54:58.122Z,94.17
2022-09-09T06:55:58.120Z,94.32
2022-09-09T06:56:58.131Z,94.03
2022-09-09T06:57:58.143Z,93.32
2022-09-09T06:58:58.153Z,93.37
2022-09-09T06:59:58.165Z,93.17
2022-09-09T07:00:58.227Z,93.74
2022-09-09T07:01:58.233Z,93.27
2022-09-09T07:02:58.233Z,92.98
2022-09-09T07:03:58.220Z,93.27
2022-09-09T07:04:58.230Z,93.17
2022-09-09T07:05:58.243Z,93.27
2022-09-09T07:06:58.361Z,93.08
2022-09-09T07:07:58.265Z,92.32
2022-09-09T07:08:58.283Z,93.17
2022-09-09T07:09:58.295Z,92.60
2022-09-09T07:10:58.308Z,92.98
2022-09-09T07:11:58.317Z,93.27
2022-09-09T07:12:58.331Z,93.27
2022-09-09T07:13:58.438Z,92.79
2022-09-09T07:14:58.357Z,92.50
2022-09-09T07:15:58.460Z,92.03
2022-09-09T07:16:59.871Z,92.22
2022-09-09T07:17:58.391Z,92.41
2022-09-09T07:18:58.434Z,91.94
2022-09-09T07:19:58.415Z,92.22
2022-09-09T07:20:58.427Z,92.03
2022-09-09T07:21:58.440Z,92.32
2022-09-09T07:22:58.451Z,91.08
2022-09-09T07:23:58.468Z,89.75
2022-09-09T07:24:58.483Z,89.65
2022-09-09T07:25:58.498Z,89.65
2022-09-09T07:26:58.505Z,90.89
2022-09-09T07:27:58.519Z,91.17
2022-09-09T07:28:58.530Z,88.70
2022-09-09T07:29:58.549Z,87.84
2022-09-09T07:30:58.605Z,87.93
2022-09-09T07:31:59.595Z,87.36
2022-09-09T07:32:58.578Z,87.07
2022-09-09T07:33:58.593Z,86.79
2022-09-09T07:34:58.633Z,87.74
2022-09-09T07:35:58.623Z,88.70
2022-09-09T07:36:58.631Z,88.60
2022-09-09T07:37:58.644Z,88.89
2022-09-09T07:38:58.711Z,87.46
2022-09-09T07:39:58.764Z,85.64
2022-09-09T07:40:58.681Z,86.41
2022-09-09T07:41:58.696Z,86.32
2022-09-09T07:42:58.704Z,86.41
2022-09-09T07:43:58.718Z,85.17
2022-09-09T07:44:58.731Z,85.36
2022-09-09T07:45:58.749Z,84.60
2022-09-09T07:46:58.871Z,83.78
2022-09-09T07:47:58.768Z,82.73
2022-09-09T07:48:58.782Z,81.97
2022-09-09T07:49:58.799Z,82.54
2022-09-09T07:50:58.834Z,84.40
2022-09-09T07:51:58.864Z,85.25
2022-09-09T07:52:58.830Z,82.40
2022-09-09T07:53:58.846Z,82.30
2022-09-09T07:55:01.328Z,82.01
2022-09-09T07:55:58.868Z,82.11
2022-09-09T07:57:00.263Z,82.40
2022-09-09T07:57:58.907Z,81.35
2022-09-09T07:58:58.908Z,81.15
2022-09-09T07:59:58.921Z,80.77
2022-09-09T08:00:58.944Z,81.38
2022-09-09T08:01:58.968Z,81.58
2022-09-09T08:02:59.001Z,80.62
2022-09-09T08:03:58.985Z,78.33
2022-09-09T08:04:58.990Z,77.67
2022-09-09T08:05:59.106Z,78.81
2022-09-09T08:06:59.089Z,79.72
2022-09-09T08:07:59.044Z,79.82
2022-09-09T08:08:59.035Z,81.20
2022-09-09T08:09:59.052Z,80.11
2022-09-09T08:10:59.064Z,79.15
2022-09-09T08:11:59.079Z,79.35
2022-09-09T08:13:17.285Z,78.86
2022-09-09T08:14:02.374Z,78.58
2022-09-09T08:14:59.117Z,78.77
2022-09-09T08:15:59.191Z,79.91
2022-09-09T08:16:59.239Z,79.63
2022-09-09T08:17:59.157Z,80.54
2022-09-09T08:18:59.167Z,82.01
2022-09-09T08:19:59.175Z,81.54
2022-09-09T08:20:59.188Z,80.01
2022-09-09T08:21:59.199Z,79.97
2022-09-09T08:22:59.247Z,78.54
2022-09-09T08:23:59.240Z,79.21
2022-09-09T08:24:59.241Z,77.59
2022-09-09T08:25:59.255Z,76.64
2022-09-09T08:26:59.270Z,76.01
2022-09-09T08:27:59.388Z,77.82
2022-09-09T08:28:59.414Z,78.96
2022-09-09T08:29:59.307Z,76.52
2022-09-09T08:30:59.470Z,77.23
2022-09-09T08:31:59.333Z,75.37
2022-09-09T08:32:59.349Z,74.52
2022-09-09T08:33:59.370Z,75.76
2022-09-09T08:35:01.228Z,75.37
2022-09-09T08:35:59.378Z,75.66
2022-09-09T08:36:59.392Z,77.13
2022-09-09T08:37:59.406Z,75.42
2022-09-09T08:38:59.442Z,76.08
2022-09-09T08:39:59.489Z,74.08
2022-09-09T08:40:59.447Z,74.17
2022-09-09T08:41:59.462Z,74.65
2022-09-09T08:42:59.479Z,74.37
2022-09-09T08:43:59.494Z,73.60
2022-09-09T08:44:59.497Z,75.03
2022-09-09T08:45:59.548Z,76.50
2022-09-09T08:46:59.522Z,75.74
2022-09-09T08:47:59.540Z,74.21
2022-09-09T08:48:59.554Z,74.78
2022-09-09T08:49:59.564Z,74.30
2022-09-09T08:50:59.580Z,75.54
2022-09-09T08:51:59.589Z,75.45
2022-09-09T08:52:59.602Z,74.98
2022-09-09T08:53:59.981Z,75.54
2022-09-09T08:54:59.659Z,74.40
2022-09-09T08:55:59.643Z,75.64
2022-09-09T08:56:59.656Z,75.54
2022-09-09T08:57:59.673Z,75.49
2022-09-09T08:58:59.685Z,74.15
2022-09-09T08:59:59.704Z,73.67
2022-09-09T09:00:59.714Z,72.28
2022-09-09T09:01:59.791Z,69.79
2022-09-09T09:02:59.742Z,69.60
2022-09-09T09:03:59.756Z,69.21
2022-09-09T09:04:59.822Z,71.42
2022-09-09T09:05:59.783Z,70.94
2022-09-09T09:06:59.793Z,70.07
2022-09-09T09:07:59.811Z,70.56
2022-09-09T09:08:59.832Z,69.79
2022-09-09T09:09:59.848Z,70.94
2022-09-09T09:10:59.883Z,73.80
2022-09-09T09:11:59.864Z,70.56
2022-09-09T09:12:59.879Z,71.70
2022-09-09T09:13:59.888Z,71.26
2022-09-09T09:14:59.903Z,69.89
2022-09-09T09:15:59.956Z,71.36
2022-09-09T09:17:00.432Z,71.36
2022-09-09T09:17:59.951Z,69.25
2022-09-09T09:18:59.961Z,70.78
2022-09-09T09:19:59.986Z,69.15
2022-09-09T09:20:59.991Z,68.58
2022-09-09T09:22:00.008Z,69.06
2022-09-09T09:23:00.021Z,70.01
2022-09-09T09:24:00.054Z,68.20
2022-09-09T09:25:00.120Z,68.20
2022-09-09T09:26:00.069Z,69.15
2022-09-09T09:27:00.101Z,69.29
2022-09-09T09:28:00.127Z,69.57
2022-09-09T09:29:00.112Z,69.89
2022-09-09T09:31:00.212Z,68.65
2022-09-09T09:32:00.150Z,65.84
2022-09-09T09:33:00.173Z,66.70
2022-09-09T09:34:00.181Z,68.10
2022-09-09T09:35:00.193Z,68.77
2022-09-09T09:36:00.206Z,67.66
2022-09-09T09:37:00.227Z,67.47
2022-09-09T09:41:00.283Z,67.27
2022-09-09T09:42:03.818Z,66.61
2022-09-09T09:43:00.337Z,67.31
2022-09-09T09:44:00.326Z,67.60
2022-09-09T09:45:00.346Z,66.25
2022-09-09T09:46:16.773Z,64.72
2022-09-09T09:47:00.431Z,64.50
2022-09-09T09:48:04.128Z,66.22
2022-09-09T09:49:00.406Z,65.36
2022-09-09T09:50:00.478Z,64.79
2022-09-09T09:51:00.434Z,68.07
2022-09-09T09:52:00.454Z,66.96
2022-09-09T09:53:00.472Z,64.09
2022-09-09T09:54:00.480Z,63.03
2022-09-09T09:55:04.067Z,64.59
2022-09-09T09:56:00.514Z,61.69
2022-09-09T09:57:00.522Z,62.55
2022-09-09T09:58:00.685Z,61.40
2022-09-09T09:59:01.854Z,62.36
2022-09-09T10:00:00.575Z,62.10
2022-09-09T10:01:00.618Z,61.91
2022-09-09T10:02:00.602Z,61.85
2022-09-09T10:03:00.624Z,59.93
2022-09-09T10:04:00.641Z,59.61
2022-09-09T10:05:00.688Z,60.89
2022-09-09T10:06:00.666Z,59.74
2022-09-09T10:07:00.685Z,59.83
2022-09-09T10:08:00.706Z,59.67
2022-09-09T10:09:00.714Z,59.58
2022-09-09T10:10:00.731Z,54.37
2022-09-09T10:11:00.761Z,54.85
2022-09-09T10:12:00.767Z,57.53
2022-09-09T10:13:00.786Z,56.89
2022-09-09T10:14:00.794Z,55.86
2022-09-09T10:15:00.936Z,54.33
2022-09-09T10:16:05.100Z,52.93
2022-09-09T10:17:00.864Z,54.34
2022-09-09T10:18:00.861Z,55.40
2022-09-09T10:19:00.882Z,55.33
2022-09-09T10:20:00.899Z,54.24
2022-09-09T10:21:00.915Z,54.05
2022-09-09T10:22:00.931Z,56.54
2022-09-09T10:23:00.956Z,56.57
2022-09-09T10:24:00.964Z,55.33
2022-09-09T10:25:00.978Z,56.12
2022-09-09T10:26:00.999Z,54.85
2022-09-09T10:27:01.020Z,53.44
2022-09-09T10:28:05.952Z,54.88
2022-09-09T10:29:01.045Z,56.12
2022-09-09T10:30:01.061Z,55.35
2022-09-09T10:31:01.211Z,53.36
2022-09-09T10:32:01.101Z,56.16
2022-09-09T10:33:01.172Z,56.00
2022-09-09T10:34:01.133Z,54.94
2022-09-09T10:35:01.157Z,53.82
2022-09-09T10:36:01.171Z,55.45
2022-09-09T10:37:01.189Z,54.88
2022-09-09T10:38:01.204Z,51.68
2022-09-09T10:39:01.220Z,52.95
2022-09-09T10:40:01.289Z,52.67
2022-09-09T10:41:01.250Z,53.94
2022-09-09T10:42:01.275Z,52.40
2022-09-09T10:43:01.286Z,52.12
2022-09-09T10:44:01.297Z,50.87
2022-09-09T10:45:01.352Z,50.03
2022-09-09T10:46:01.453Z,49.36
2022-09-09T10:47:02.438Z,50.08
2022-09-09T10:48:01.371Z,50.17
2022-09-09T10:49:01.392Z,50.75
2022-09-09T10:50:01.406Z,51.81
2022-09-09T10:51:04.743Z,52.09
2022-09-09T10:52:01.502Z,50.78
2022-09-09T10:53:01.457Z,51.18
2022-09-09T10:54:01.472Z,51.69
2022-09-09T10:55:01.508Z,48.97
2022-09-09T10:56:01.517Z,49.74
2022-09-09T10:57:01.561Z,50.08
2022-09-09T10:58:01.563Z,52.36
2022-09-09T10:59:01.562Z,53.44
2022-09-09T11:00:01.580Z,52.67
2022-09-09T11:01:01.663Z,54.13
2022-09-09T11:02:01.614Z,51.06
2022-09-09T11:03:01.658Z,50.96
2022-09-09T11:04:01.651Z,51.71
2022-09-09T11:05:01.673Z,52.48
2022-09-09T11:06:01.728Z,53.27
2022-09-09T11:07:01.706Z,50.96
2022-09-09T11:08:01.723Z,50.99
2022-09-09T11:09:01.741Z,50.51
2022-09-09T11:10:01.754Z,48.57
2022-09-09T11:11:01.772Z,49.91
2022-09-09T11:12:01.791Z,49.69
2022-09-09T11:13:01.818Z,51.06
2022-09-09T11:14:01.823Z,51.54
2022-09-09T11:15:01.850Z,50.92
2022-09-09T11:16:01.961Z,51.40
2022-09-09T11:17:01.973Z,49.86
2022-09-09T11:18:01.896Z,52.00
2022-09-09T11:19:01.936Z,52.31
2022-09-09T11:20:01.937Z,50.20
2022-09-09T11:21:01.950Z,48.76
2022-09-09T11:22:01.964Z,48.47
2022-09-09T11:23:01.984Z,48.85
2022-09-09T11:24:02.001Z,50.10
2022-09-09T11:25:02.071Z,50.61
2022-09-09T11:26:02.040Z,46.34
2022-09-09T11:27:02.073Z,48.57
2022-09-09T11:28:02.070Z,47.51
2022-09-09T11:29:04.889Z,47.99
2022-09-09T11:30:02.110Z,47.68
2022-09-09T11:31:02.229Z,48.85
2022-09-09T11:32:02.139Z,48.66
2022-09-09T11:33:02.159Z,47.49
2022-09-09T11:34:02.174Z,47.94
2022-09-09T11:35:02.219Z,49.10
2022-09-09T11:36:04.526Z,48.43
2022-09-09T11:37:02.232Z,50.84
2022-09-09T11:38:02.247Z,48.54
2022-09-09T11:39:02.268Z,49.24
2022-09-09T11:40:02.337Z,48.21
2022-09-09T11:41:02.313Z,48.90
2022-09-09T11:42:02.318Z,47.92
2022-09-09T11:43:02.348Z,47.05
2022-09-09T11:44:02.349Z,47.44
2022-09-09T11:45:02.372Z,48.79
2022-09-09T11:46:02.412Z,44.94
2022-09-09T11:47:02.412Z,45.25
2022-09-09T11:48:02.419Z,44.37
2022-09-09T11:49:02.441Z,43.98
2022-09-09T11:50:02.457Z,43.48
2022-09-09T11:51:02.499Z,45.90
2022-09-09T11:52:02.495Z,45.28
2022-09-09T11:53:02.513Z,45.86
2022-09-09T11:54:02.523Z,45.86
2022-09-09T11:55:02.543Z,45.78
2022-09-09T11:56:02.565Z,44.54
2022-09-09T11:57:02.584Z,45.21
2022-09-09T11:58:02.605Z,45.23
2022-09-09T11:59:02.618Z,45.23
2022-09-09T12:00:02.709Z,45.92
2022-09-09T12:01:02.668Z,46.72
2022-09-09T12:02:02.771Z,45.97
2022-09-09T12:03:02.692Z,44.51
2022-09-09T12:04:02.731Z,45.37
2022-09-09T12:05:02.825Z,45.47
2022-09-09T12:06:02.807Z,44.68
2022-09-09T12:07:02.784Z,45.21
2022-09-09T12:08:02.781Z,47.15
2022-09-09T12:09:02.794Z,47.85
2022-09-09T12:10:02.811Z,47.13
2022-09-09T12:11:02.833Z,46.55
2022-09-09T12:12:02.851Z,47.80
2022-09-09T12:13:02.866Z,48.02
2022-09-09T12:14:02.882Z,46.96
2022-09-09T12:15:02.918Z,45.28
2022-09-09T12:16:02.923Z,48.09
2022-09-09T12:17:02.938Z,45.90
2022-09-09T12:18:03.735Z,45.01
2022-09-09T12:19:02.971Z,45.11
2022-09-09T12:20:02.998Z,45.11
2022-09-09T12:21:03.010Z,45.81
2022-09-09T12:22:03.034Z,45.23
2022-09-09T12:23:03.070Z,46.21
2022-09-09T12:24:03.060Z,45.14
2022-09-09T12:25:03.078Z,45.35
2022-09-09T12:26:03.100Z,45.23
2022-09-09T12:27:03.118Z,46.09
2022-09-09T12:28:03.134Z,46.86
2022-09-09T12:29:03.154Z,46.59
2022-09-09T12:30:03.166Z,45.92
2022-09-09T12:31:03.237Z,47.10
2022-09-09T12:32:03.207Z,44.60
2022-09-09T12:33:03.227Z,45.15
2022-09-09T12:34:03.240Z,45.64
2022-09-09T12:35:03.258Z,46.21
2022-09-09T12:36:03.277Z,46.12
2022-09-09T12:37:03.293Z,45.35
2022-09-09T12:38:03.421Z,46.45
2022-09-09T12:39:03.354Z,47.75
2022-09-09T12:40:03.437Z,45.83
2022-09-09T12:41:03.370Z,44.24
2022-09-09T12:42:03.382Z,45.88
2022-09-09T12:43:03.409Z,46.26
2022-09-09T12:44:03.422Z,47.71
2022-09-09T12:45:03.440Z,46.58
2022-09-09T12:46:03.530Z,47.25
2022-09-09T12:47:03.475Z,45.61
2022-09-09T12:48:03.496Z,45.61
2022-09-09T12:49:03.513Z,45.32
2022-09-09T12:50:03.573Z,46.00
2022-09-09T12:51:03.549Z,45.71
2022-09-09T12:52:03.569Z,45.81
2022-09-09T12:53:03.585Z,45.40
2022-09-09T12:54:03.603Z,47.15
2022-09-09T12:55:03.647Z,46.00
2022-09-09T12:56:03.644Z,46.48
2022-09-09T12:57:03.659Z,46.00